Time;durP1;ratioP1;P1;durP2;ratioP2;P2;SDS_P1;SDS_P2;PMS_P1;PMS_P2;Temp;Humidity;BMP_temperature;BMP_pressure;BME280_temperature;BME280_humidity;BME280_pressure;Samples;Min_cycle;Max_cycle;Signal;HPM_P1;HPM_P2
2023/11/25 00:03:06;;;;;;;;;;;;;;;-0.15;100.00;97070.55;436108;1253;139191;-62
2023/11/25 00:13:14;;;;;;;11.80;4.60;;;;;;;-0.16;100.00;97070.96;436746;1255;125726;-63
2023/11/25 00:23:21;;;;;;;6.90;4.80;;;;;;;-0.29;100.00;97077.98;437051;1254;139211;-63
2023/11/25 00:33:28;;;;;;;6.60;4.80;;;;;;;-0.42;100.00;97082.16;436208;1254;139339;-63
2023/11/25 00:43:36;;;;;;;7.10;3.70;;;;;;;-0.51;100.00;97087.52;436592;1253;139001;-64
2023/11/25 00:53:43;;;;;;;6.30;5.50;;;;;;;-0.45;100.00;97091.98;436267;1253;139263;-64
2023/11/25 01:03:49;;;;;;;3.50;2.20;;;;;;;-0.42;100.00;97090.05;436572;1253;140472;-63
2023/11/25 01:13:56;;;;;;;2.80;1.70;;;;;;;-0.44;100.00;97092.77;436277;1254;138965;-63
2023/11/25 01:24:02;;;;;;;2.20;2.00;;;;;;;-0.47;100.00;97103.95;436127;1253;139077;-63
2023/11/25 01:34:08;;;;;;;2.90;2.60;;;;;;;-0.47;100.00;97111.51;436167;1253;140959;-63
2023/11/25 01:44:15;;;;;;;3.40;3.00;;;;;;;-0.48;100.00;97127.72;435813;1251;139751;-63
2023/11/25 01:54:23;;;;;;;2.80;2.30;;;;;;;-0.51;100.00;97145.40;436346;1253;140218;-62
2023/11/25 02:04:32;;;;;;;2.60;2.40;;;;;;;-0.57;100.00;97164.13;436225;1253;140421;-63
2023/11/25 02:14:39;;;;;;;1.70;1.40;;;;;;;-0.59;100.00;97176.81;435951;1251;139956;-64
2023/11/25 02:24:45;;;;;;;1.60;1.50;;;;;;;-0.68;100.00;97189.02;435997;1251;139764;-63
2023/11/25 02:34:52;;;;;;;1.30;1.00;;;;;;;-0.76;100.00;97202.02;435817;1253;139910;-63
2023/11/25 02:44:58;;;;;;;3.30;1.90;;;;;;;-0.80;100.00;97227.98;435627;1251;140581;-64
2023/11/25 02:55:05;;;;;;;1.80;1.20;;;;;;;-0.83;100.00;97241.72;435642;1251;140220;-63
2023/11/25 03:05:13;;;;;;;1.50;1.10;;;;;;;-0.89;100.00;97249.77;435696;1253;140749;-63
2023/11/25 03:15:21;;;;;;;2.40;1.40;;;;;;;-0.92;100.00;97253.22;436107;1251;140189;-63
2023/11/25 03:25:30;;;;;;;3.20;2.00;;;;;;;-0.91;100.00;97264.82;435703;1253;140630;-64
2023/11/25 03:35:37;;;;;;;2.60;2.40;;;;;;;-0.92;100.00;97276.56;435894;1251;139927;-63
2023/11/25 03:45:43;;;;;;;1.70;1.60;;;;;;;-0.91;100.00;97294.39;435709;1251;139560;-63
2023/11/25 03:55:49;;;;;;;2.50;1.80;;;;;;;-0.91;100.00;97305.56;435677;1254;140522;-63
2023/11/25 04:05:57;;;;;;;4.40;2.70;;;;;;;-0.93;100.00;97315.77;436088;1251;140101;-64
2023/11/25 04:16:03;;;;;;;2.30;2.10;;;;;;;-0.95;100.00;97331.32;435954;1251;139284;-63
2023/11/25 04:26:10;;;;;;;2.10;1.80;;;;;;;-0.96;100.00;97344.45;436269;1250;140198;-62
2023/11/25 04:36:17;;;;;;;1.70;1.30;;;;;;;-0.97;100.00;97362.70;436180;1251;139266;-64
2023/11/25 04:46:25;;;;;;;2.40;2.20;;;;;;;-1.00;100.00;97373.66;435966;1253;139811;-65
2023/11/25 04:56:30;;;;;;;;;;;;;;;-1.02;100.00;97384.61;435834;1253;140268;-64
2023/11/25 05:06:36;;;;;;;2.10;2.00;;;;;;;-1.06;100.00;97400.24;436932;1253;126140;-64
2023/11/25 05:16:42;;;;;;;2.70;2.40;;;;;;;-1.08;100.00;97413.44;435828;1252;141066;-64
2023/11/25 05:26:49;;;;;;;3.50;3.00;;;;;;;-1.13;100.00;97424.67;435543;1253;140208;-63
2023/11/25 05:36:55;;;;;;;2.90;2.70;;;;;;;-1.19;100.00;97429.79;435817;1249;139301;-62
2023/11/25 05:47:01;;;;;;;3.50;3.10;;;;;;;-1.23;100.00;97450.73;435668;1251;140206;-64
2023/11/25 05:57:08;;;;;;;3.60;2.90;;;;;;;-1.24;100.00;97474.35;435730;1251;139847;-65
2023/11/25 06:07:12;;;;;;;;;;;;;;;-1.24;100.00;97490.09;436381;1251;139244;-65
2023/11/25 06:17:20;;;;;;;4.50;3.50;;;;;;;-1.20;100.00;97504.52;435979;1254;125984;-63
2023/11/25 06:27:27;;;;;;;8.50;4.10;;;;;;;-1.19;100.00;97520.27;436010;1250;140108;-63
2023/11/25 06:37:34;;;;;;;4.30;3.90;;;;;;;-1.18;100.00;97530.65;436049;1250;139601;-65
2023/11/25 06:47:40;;;;;;;8.30;4.60;;;;;;;-1.19;100.00;97541.20;436105;1251;139286;-64
2023/11/25 06:57:49;;;;;;;10.50;4.60;;;;;;;-1.21;100.00;97556.56;435757;1254;139435;-64
2023/11/25 07:07:55;;;;;;;4.80;3.90;;;;;;;-1.22;100.00;97564.56;435843;1251;139797;-64
2023/11/25 07:18:03;;;;;;;4.10;3.50;;;;;;;-1.25;100.00;97576.55;436037;1253;139564;-63
2023/11/25 07:28:10;;;;;;;5.60;4.20;;;;;;;-1.01;100.00;97585.64;436794;1252;140663;-64
2023/11/25 07:38:17;;;;;;;6.80;3.90;;;;;;;-0.14;100.00;97605.55;436202;1253;139560;-65
2023/11/25 07:48:23;;;;;;;4.60;3.50;;;;;;;0.40;100.00;97617.15;436250;1253;139235;-65
2023/11/25 07:58:29;;;;;;;5.60;4.00;;;;;;;1.83;100.00;97609.25;436314;1253;139882;-63
2023/11/25 08:08:35;;;;;;;5.80;4.90;;;;;;;2.41;100.00;97622.16;435595;1251;141055;-63
2023/11/25 08:18:41;;;;;;;4.30;3.80;;;;;;;2.06;100.00;97638.98;435818;1252;140054;-63
2023/11/25 08:28:53;;;;;;;5.50;5.00;;;;;;;2.17;100.00;97646.29;435702;1251;138913;-64
2023/11/25 08:39:01;;;;;;;5.30;4.70;;;;;;;3.94;100.00;97653.95;436718;1251;139117;-63
2023/11/25 08:49:09;;;;;;;8.70;5.40;;;;;;;5.23;100.00;97667.76;436634;1251;139527;-63
2023/11/25 08:59:18;;;;;;;8.60;5.20;;;;;;;5.02;100.00;97682.23;435864;1251;139624;-63
2023/11/25 09:09:26;;;;;;;7.40;6.10;;;;;;;4.88;100.00;97690.41;435673;1251;140079;-63
2023/11/25 09:19:32;;;;;;;6.80;5.70;;;;;;;5.43;100.00;97696.70;435793;1253;140321;-62
2023/11/25 09:29:41;;;;;;;6.60;5.50;;;;;;;4.35;99.98;97710.11;435822;1250;139207;-64
2023/11/25 09:39:47;;;;;;;6.40;4.70;;;;;;;3.17;100.00;97713.67;435756;1251;138906;-63
2023/11/25 09:49:54;;;;;;;4.50;4.10;;;;;;;2.41;100.00;97716.50;435835;1253;138950;-64
2023/11/25 10:00:01;;;;;;;4.30;3.90;;;;;;;1.97;100.00;97719.77;437289;1250;139585;-63
2023/11/25 10:10:09;;;;;;;7.00;4.10;;;;;;;1.79;100.00;97720.23;436126;1253;142276;-63
2023/11/25 10:20:19;;;;;;;4.50;4.10;;;;;;;1.75;100.00;97726.06;436630;1251;139569;-63
2023/11/25 10:30:26;;;;;;;5.10;3.60;;;;;;;1.52;100.00;97735.23;435973;1251;138897;-63
2023/11/25 10:40:30;;;;;;;;;;;;;;;1.16;100.00;97744.85;436230;1249;138925;-63
2023/11/25 10:50:37;;;;;;;7.10;4.40;;;;;;;1.00;100.00;97750.20;435876;1251;126837;-65
2023/11/25 11:00:43;;;;;;;10.00;6.50;;;;;;;0.88;100.00;97757.03;436360;1253;139063;-66
2023/11/25 11:10:56;;;;;;;7.40;6.30;;;;;;;0.85;100.00;97761.67;436377;1250;139593;-66
2023/11/25 11:21:05;;;;;;;8.20;5.60;;;;;;;0.76;100.00;97767.48;437582;1253;141137;-67
2023/11/25 11:31:58;;;;;;;6.30;4.60;;;;;;;0.72;100.00;97775.63;436196;1250;140486;-66
2023/11/25 11:42:32;;;;;;;5.70;5.00;;;;;;;0.76;100.00;97774.73;433997;1259;139132;-65
2023/11/25 11:53:13;;;;;;;8.20;5.20;;;;;;;1.02;100.00;97775.60;434384;1256;231258;-66
2023/11/25 12:03:21;;;;;;;8.30;5.60;;;;;;;1.18;100.00;97774.23;434126;1259;139530;-65
2023/11/25 12:13:31;;;;;;;6.80;5.50;;;;;;;1.23;100.00;97774.44;436083;1254;139347;-65
2023/11/25 12:23:37;;;;;;;8.30;5.80;;;;;;;1.25;100.00;97758.13;435933;1253;139127;-63
2023/11/25 12:34:00;;;;;;;6.00;5.40;;;;;;;1.16;100.00;97758.47;435991;1250;139395;-68
2023/11/25 12:44:09;;;;;;;8.10;6.70;;;;;;;1.16;100.00;97769.99;436471;1254;139592;-64
2023/11/25 12:54:16;;;;;;;7.50;5.20;;;;;;;0.93;100.00;97770.40;436255;1253;138994;-65
2023/11/25 13:04:25;;;;;;;7.70;5.90;;;;;;;0.80;100.00;97770.40;436044;1253;140197;-66
2023/11/25 13:14:32;;;;;;;6.60;4.80;;;;;;;0.74;100.00;97771.91;436012;1250;139053;-66
2023/11/25 13:24:38;;;;;;;7.30;6.40;;;;;;;0.66;100.00;97774.73;436114;1250;139068;-65
2023/11/25 13:34:45;;;;;;;8.10;6.40;;;;;;;0.61;100.00;97773.09;436518;1253;139828;-65
2023/11/25 13:44:51;;;;;;;7.80;5.90;;;;;;;0.52;100.00;97788.70;435998;1253;140036;-66
2023/11/25 13:54:57;;;;;;;5.70;4.20;;;;;;;0.42;100.00;97799.56;436525;1251;140007;-66
2023/11/25 14:05:04;;;;;;;3.60;2.90;;;;;;;0.32;100.00;97802.63;436098;1253;139477;-66
2023/11/25 14:15:11;;;;;;;2.60;2.40;;;;;;;0.16;100.00;97811.54;437347;1253;139730;-66
2023/11/25 14:25:19;;;;;;;3.40;3.00;;;;;;;0.01;100.00;97818.94;436584;1254;139077;-66
2023/11/25 14:35:26;;;;;;;4.00;3.60;;;;;;;-0.09;100.00;97819.09;437850;1248;139326;-68
2023/11/25 14:45:32;;;;;;;3.70;3.40;;;;;;;-0.23;100.00;97817.54;436378;1253;140836;-72
2023/11/25 14:55:40;;;;;;;4.50;3.90;;;;;;;-0.33;100.00;97832.11;436665;1250;139240;-74
2023/11/25 15:05:47;;;;;;;3.90;3.60;;;;;;;-0.39;100.00;97844.12;437456;1250;140788;-64
2023/11/25 15:15:53;;;;;;;3.90;3.20;;;;;;;-0.46;100.00;97844.23;438502;1253;139082;-75
2023/11/25 15:26:00;;;;;;;3.40;3.10;;;;;;;-0.49;100.00;97852.98;439705;1254;139675;-70
2023/11/25 15:36:08;;;;;;;4.90;4.20;;;;;;;-0.50;100.00;97853.55;443650;1250;138944;-68
2023/11/25 15:46:14;;;;;;;5.40;4.90;;;;;;;-0.49;100.00;97862.12;435873;1253;139681;-69
2023/11/25 15:56:20;;;;;;;;;;;;;;;-0.49;100.00;97868.80;445070;1249;140100;-68
2023/11/25 16:06:26;;;;;;;6.70;6.10;;;;;;;-0.49;100.00;97875.67;436171;1250;126047;-68
2023/11/25 16:16:33;;;;;;;7.30;6.10;;;;;;;-0.51;100.00;97890.01;436450;1253;140208;-69
2023/11/25 16:26:41;;;;;;;8.10;6.60;;;;;;;-0.53;100.00;97888.42;437375;1253;141479;-68
2023/11/25 16:36:48;;;;;;;7.80;7.00;;;;;;;-0.54;100.00;97885.89;436590;1253;139077;-70
2023/11/25 16:46:55;;;;;;;7.20;6.60;;;;;;;-0.55;100.00;97896.77;435967;1253;139183;-71
2023/11/25 16:56:59;;;;;;;;;;;;;;;-0.56;100.00;97903.34;436210;1253;139975;-69
2023/11/25 17:07:09;;;;;;;11.80;10.00;;;;;;;-0.61;100.00;97907.13;436463;1251;125605;-69
2023/11/25 17:17:15;;;;;;;9.40;7.00;;;;;;;-0.67;100.00;97911.05;436480;1253;139892;-70
2023/11/25 17:27:24;;;;;;;8.60;7.70;;;;;;;-0.74;100.00;97915.28;437288;1253;139485;-69
2023/11/25 17:37:30;;;;;;;10.90;8.10;;;;;;;-0.78;100.00;97920.45;436986;1253;140295;-69
2023/11/25 17:47:37;;;;;;;8.40;7.70;;;;;;;-0.78;100.00;97912.54;436221;1250;139295;-70
2023/11/25 17:57:44;;;;;;;9.30;8.30;;;;;;;-0.80;100.00;97910.41;436413;1250;139788;-70
2023/11/25 18:07:53;;;;;;;9.30;8.40;;;;;;;-0.86;100.00;97910.32;435962;1250;139631;-70
2023/11/25 18:18:00;;;;;;;10.50;9.20;;;;;;;-0.87;100.00;97920.48;435794;1253;139694;-68
2023/11/25 18:28:06;;;;;;;9.60;8.60;;;;;;;-0.80;100.00;97922.94;436313;1255;140317;-68
2023/11/25 18:38:15;;;;;;;9.40;8.30;;;;;;;-0.79;100.00;97925.66;436191;1254;140229;-69
2023/11/25 18:48:22;;;;;;;9.60;8.70;;;;;;;-0.79;100.00;97926.66;436143;1253;139362;-70
2023/11/25 18:58:30;;;;;;;10.10;9.00;;;;;;;-1.01;100.00;97925.73;436014;1253;139191;-69
2023/11/25 19:08:37;;;;;;;10.20;8.80;;;;;;;-1.19;100.00;97944.89;436164;1254;139594;-70
2023/11/25 19:18:44;;;;;;;10.70;8.80;;;;;;;-1.10;100.00;97957.58;435907;1253;139745;-68
2023/11/25 19:28:50;;;;;;;10.40;8.70;;;;;;;-0.98;100.00;97973.23;437623;1251;139611;-69
2023/11/25 19:38:55;;;;;;;;;;;;;;;-0.95;100.00;97970.34;436179;1254;140021;-69
2023/11/25 19:49:03;;;;;;;9.90;7.50;;;;;;;-0.93;100.00;97977.65;436076;1256;125577;-68
2023/11/25 19:59:09;;;;;;;7.60;6.40;;;;;;;-0.93;100.00;97992.76;435699;1254;139528;-70
2023/11/25 20:09:17;;;;;;;7.60;6.50;;;;;;;-0.92;100.00;98002.33;436944;1256;139610;-69
2023/11/25 20:19:24;;;;;;;8.80;6.70;;;;;;;-0.98;100.00;98003.60;435931;1251;139501;-69
2023/11/25 20:29:30;;;;;;;8.70;7.20;;;;;;;-1.30;100.00;98003.56;435708;1254;139122;-69
2023/11/25 20:39:37;;;;;;;6.80;5.60;;;;;;;-1.67;100.00;98009.33;435467;1253;139741;-70
2023/11/25 20:49:46;;;;;;;7.60;6.60;;;;;;;-1.86;100.00;98017.94;435916;1253;139105;-69
2023/11/25 20:59:52;;;;;;;8.00;6.90;;;;;;;-1.70;100.00;98027.45;437079;1253;139057;-70
2023/11/25 21:09:59;;;;;;;8.50;7.30;;;;;;;-1.79;100.00;98013.02;436056;1256;139206;-70
2023/11/25 21:20:04;;;;;;;;;;;;;;;-2.00;100.00;98024.81;436012;1254;139831;-67
2023/11/25 21:30:10;;;;;;;;;;;;;;;-2.06;100.00;98026.77;435908;1252;126901;-70
2023/11/25 21:40:17;;;;;;;9.90;7.10;;;;;;;-2.05;100.00;98043.86;435734;1253;125956;-70
2023/11/25 21:50:29;;;;;;;9.80;7.70;;;;;;;-1.88;100.00;98054.19;435915;1256;140184;-69
2023/11/25 22:00:33;;;;;;;;;;;;;;;-1.69;100.00;98047.31;435817;1251;139072;-69
2023/11/25 22:10:41;;;;;;;10.70;8.00;;;;;;;-1.59;100.00;98052.25;435927;1251;126749;-69
2023/11/25 22:20:47;;;;;;;9.00;7.70;;;;;;;-1.56;100.00;98062.09;435684;1251;139370;-69
2023/11/25 22:30:53;;;;;;;;;;;;;;;-1.74;100.00;98075.13;436937;1253;139229;-71
2023/11/25 22:41:01;;;;;;;8.90;7.70;;;;;;;-1.94;100.00;98077.77;436980;1251;126099;-70
2023/11/25 22:51:07;;;;;;;7.60;6.30;;;;;;;-2.18;100.00;98085.33;436072;1254;140568;-70
2023/11/25 23:01:18;;;;;;;11.00;8.10;;;;;;;-2.50;100.00;98097.07;436747;1251;140344;-69
2023/11/25 23:11:25;;;;;;;9.00;7.80;;;;;;;-2.81;100.00;98097.09;435828;1251;139929;-69
2023/11/25 23:21:31;;;;;;;10.60;7.70;;;;;;;-3.01;100.00;98096.89;436069;1251;140468;-69
2023/11/25 23:31:38;;;;;;;11.00;8.50;;;;;;;-3.18;100.00;98096.90;436207;1254;140423;-70
2023/11/25 23:41:44;;;;;;;11.60;6.90;;;;;;;-3.37;100.00;98114.27;436052;1251;140700;-70
2023/11/25 23:51:51;;;;;;;12.20;7.40;;;;;;;-3.56;100.00;98119.30;435998;1251;207812;-70
